sensor_id;sensor_type;location;lat;lon;timestamp;temperature;humidity
18974;DHT22;9621;48.690;9.466;2022-11-15T07:00:22;-3.20;99.90
18974;DHT22;9621;48.690;9.466;2022-11-15T07:02:49;-1.10;99.90
18974;DHT22;9621;48.690;9.466;2022-11-15T07:05:16;-0.70;99.90
18974;DHT22;9621;48.690;9.466;2022-11-15T07:07:45;-0.10;99.90
18974;DHT22;9621;48.690;9.466;2022-11-15T07:10:17;0.20;99.90
18974;DHT22;9621;48.690;9.466;2022-11-15T07:12:47;0.60;99.90
18974;DHT22;9621;48.690;9.466;2022-11-15T07:15:14;0.80;99.90
18974;DHT22;9621;48.690;9.466;2022-11-15T07:17:42;1.10;99.90
18974;DHT22;9621;48.690;9.466;2022-11-15T07:20:10;1.30;99.90
18974;DHT22;9621;48.690;9.466;2022-11-15T07:22:38;1.50;99.90
18974;DHT22;9621;48.690;9.466;2022-11-15T07:25:06;1.70;99.90
18974;DHT22;9621;48.690;9.466;2022-11-15T07:27:33;1.90;99.90
18974;DHT22;9621;48.690;9.466;2022-11-15T07:30:00;2.00;99.90
18974;DHT22;9621;48.690;9.466;2022-11-15T07:32:27;2.10;99.90
18974;DHT22;9621;48.690;9.466;2022-11-15T07:34:56;2.30;99.90
18974;DHT22;9621;48.690;9.466;2022-11-15T07:37:23;2.50;99.90
18974;DHT22;9621;48.690;9.466;2022-11-15T07:39:50;2.60;99.90
18974;DHT22;9621;48.690;9.466;2022-11-15T07:42:16;2.90;99.90
18974;DHT22;9621;48.690;9.466;2022-11-15T07:45:01;3.10;99.90
18974;DHT22;9621;48.690;9.466;2022-11-15T07:47:28;3.40;99.90
18974;DHT22;9621;48.690;9.466;2022-11-15T07:49:57;3.70;99.90
18974;DHT22;9621;48.690;9.466;2022-11-15T07:52:24;4.00;99.90
18974;DHT22;9621;48.690;9.466;2022-11-15T07:54:50;4.30;99.90
18974;DHT22;9621;48.690;9.466;2022-11-15T07:57:19;4.50;99.90
18974;DHT22;9621;48.690;9.466;2022-11-15T07:59:45;4.90;99.90
18974;DHT22;9621;48.690;9.466;2022-11-15T08:02:12;5.20;99.90
18974;DHT22;9621;48.690;9.466;2022-11-15T08:04:41;5.30;99.90
18974;DHT22;9621;48.690;9.466;2022-11-15T08:07:10;5.90;99.90
18974;DHT22;9621;48.690;9.466;2022-11-15T08:09:37;5.70;99.90
18974;DHT22;9621;48.690;9.466;2022-11-15T08:12:05;5.90;99.90
18974;DHT22;9621;48.690;9.466;2022-11-15T08:14:32;6.20;99.90
18974;DHT22;9621;48.690;9.466;2022-11-15T08:16:58;6.50;99.90
18974;DHT22;9621;48.690;9.466;2022-11-15T08:19:25;6.70;99.90
18974;DHT22;9621;48.690;9.466;2022-11-15T08:21:52;7.00;99.90
18974;DHT22;9621;48.690;9.466;2022-11-15T08:24:21;7.30;99.90
18974;DHT22;9621;48.690;9.466;2022-11-15T08:26:48;7.60;99.90
18974;DHT22;9621;48.690;9.466;2022-11-15T08:29:14;7.90;99.90
18974;DHT22;9621;48.690;9.466;2022-11-15T08:31:42;8.00;99.90
18974;DHT22;9621;48.690;9.466;2022-11-15T08:34:09;8.20;99.90
18974;DHT22;9621;48.690;9.466;2022-11-15T08:36:35;8.40;99.90
18974;DHT22;9621;48.690;9.466;2022-11-15T08:39:03;8.40;99.90
18974;DHT22;9621;48.690;9.466;2022-11-15T08:41:34;8.60;99.90
18974;DHT22;9621;48.690;9.466;2022-11-15T08:44:01;8.70;99.90
18974;DHT22;9621;48.690;9.466;2022-11-15T08:46:28;8.70;99.90
18974;DHT22;9621;48.690;9.466;2022-11-15T08:48:55;8.70;99.90
18974;DHT22;9621;48.690;9.466;2022-11-15T08:51:23;8.70;99.90
18974;DHT22;9621;48.690;9.466;2022-11-15T08:53:50;8.90;99.90
18974;DHT22;9621;48.690;9.466;2022-11-15T08:56:17;9.00;99.90
18974;DHT22;9621;48.690;9.466;2022-11-15T08:58:45;9.00;99.90
18974;DHT22;9621;48.690;9.466;2022-11-15T09:01:17;9.10;99.90
18974;DHT22;9621;48.690;9.466;2022-11-15T09:03:45;9.20;99.90
18974;DHT22;9621;48.690;9.466;2022-11-15T09:06:12;9.20;99.90
18974;DHT22;9621;48.690;9.466;2022-11-15T09:08:40;9.30;99.90
18974;DHT22;9621;48.690;9.466;2022-11-15T09:11:08;9.40;99.90
18974;DHT22;9621;48.690;9.466;2022-11-15T09:13:36;9.60;99.90
18974;DHT22;9621;48.690;9.466;2022-11-15T09:16:06;9.80;99.90
18974;DHT22;9621;48.690;9.466;2022-11-15T09:18:33;10.10;99.90
18974;DHT22;9621;48.690;9.466;2022-11-15T09:21:01;10.50;99.90
18974;DHT22;9621;48.690;9.466;2022-11-15T09:23:29;10.80;99.90
18974;DHT22;9621;48.690;9.466;2022-11-15T09:25:59;11.10;99.90
18974;DHT22;9621;48.690;9.466;2022-11-15T09:28:26;11.40;99.90
18974;DHT22;9621;48.690;9.466;2022-11-15T09:30:56;11.70;99.90
18974;DHT22;9621;48.690;9.466;2022-11-15T09:33:26;11.90;99.90
18974;DHT22;9621;48.690;9.466;2022-11-15T09:35:53;12.10;99.90
18974;DHT22;9621;48.690;9.466;2022-11-15T09:38:20;12.10;99.90
18974;DHT22;9621;48.690;9.466;2022-11-15T09:40:51;12.20;99.90
18974;DHT22;9621;48.690;9.466;2022-11-15T09:43:28;12.20;99.90
18974;DHT22;9621;48.690;9.466;2022-11-15T09:46:04;12.40;99.90
18974;DHT22;9621;48.690;9.466;2022-11-15T09:48:51;12.50;99.90
18974;DHT22;9621;48.690;9.466;2022-11-15T09:51:25;12.60;99.90
18974;DHT22;9621;48.690;9.466;2022-11-15T09:54:04;12.60;99.90
18974;DHT22;9621;48.690;9.466;2022-11-15T09:56:35;12.80;99.90
18974;DHT22;9621;48.690;9.466;2022-11-15T09:59:17;12.90;99.90
18974;DHT22;9621;48.690;9.466;2022-11-15T10:01:53;13.10;99.90
18974;DHT22;9621;48.690;9.466;2022-11-15T10:04:25;13.30;99.90
18974;DHT22;9621;48.690;9.466;2022-11-15T10:06:57;13.50;99.90
18974;DHT22;9621;48.690;9.466;2022-11-15T10:09:33;13.70;99.90
18974;DHT22;9621;48.690;9.466;2022-11-15T10:12:00;13.80;99.90
18974;DHT22;9621;48.690;9.466;2022-11-15T10:14:30;14.10;99.90
18974;DHT22;9621;48.690;9.466;2022-11-15T10:17:19;14.40;99.90
18974;DHT22;9621;48.690;9.466;2022-11-15T10:19:56;14.60;99.90
18974;DHT22;9621;48.690;9.466;2022-11-15T10:22:31;14.90;99.90
18974;DHT22;9621;48.690;9.466;2022-11-15T10:25:13;15.30;99.90
18974;DHT22;9621;48.690;9.466;2022-11-15T10:27:44;15.70;99.90
18974;DHT22;9621;48.690;9.466;2022-11-15T10:30:14;16.10;99.90
18974;DHT22;9621;48.690;9.466;2022-11-15T10:32:43;16.60;99.90
18974;DHT22;9621;48.690;9.466;2022-11-15T10:35:27;16.90;99.90
18974;DHT22;9621;48.690;9.466;2022-11-15T10:38:05;17.20;99.90
18974;DHT22;9621;48.690;9.466;2022-11-15T10:40:33;17.40;99.90
18974;DHT22;9621;48.690;9.466;2022-11-15T10:43:14;17.60;99.90
18974;DHT22;9621;48.690;9.466;2022-11-15T10:45:42;17.70;99.90
18974;DHT22;9621;48.690;9.466;2022-11-15T10:48:24;17.80;99.90
18974;DHT22;9621;48.690;9.466;2022-11-15T10:50:54;17.80;99.90
18974;DHT22;9621;48.690;9.466;2022-11-15T10:53:25;17.70;99.90
18974;DHT22;9621;48.690;9.466;2022-11-15T10:55:55;17.70;99.90
18974;DHT22;9621;48.690;9.466;2022-11-15T10:58:35;17.60;99.90
18974;DHT22;9621;48.690;9.466;2022-11-15T11:01:13;17.60;99.90
18974;DHT22;9621;48.690;9.466;2022-11-15T11:03:42;17.80;99.90
18974;DHT22;9621;48.690;9.466;2022-11-15T11:06:13;18.10;99.90
18974;DHT22;9621;48.690;9.466;2022-11-15T11:08:41;18.50;99.90
18974;DHT22;9621;48.690;9.466;2022-11-15T11:11:19;18.90;99.90
18974;DHT22;9621;48.690;9.466;2022-11-15T11:13:46;19.20;99.90
18974;DHT22;9621;48.690;9.466;2022-11-15T11:16:41;19.50;99.90
18974;DHT22;9621;48.690;9.466;2022-11-15T11:19:28;19.70;99.90
18974;DHT22;9621;48.690;9.466;2022-11-15T11:22:01;19.80;99.90
18974;DHT22;9621;48.690;9.466;2022-11-15T11:24:34;19.90;99.90
18974;DHT22;9621;48.690;9.466;2022-11-15T11:27:16;19.80;99.90
18974;DHT22;9621;48.690;9.466;2022-11-15T11:29:58;19.60;99.90
18974;DHT22;9621;48.690;9.466;2022-11-15T11:32:39;19.40;99.90
18974;DHT22;9621;48.690;9.466;2022-11-15T11:35:13;19.10;99.90
18974;DHT22;9621;48.690;9.466;2022-11-15T11:37:51;18.90;99.90
18974;DHT22;9621;48.690;9.466;2022-11-15T11:40:28;18.60;99.90
18974;DHT22;9621;48.690;9.466;2022-11-15T11:43:02;18.20;99.90
18974;DHT22;9621;48.690;9.466;2022-11-15T11:45:55;17.80;99.90
18974;DHT22;9621;48.690;9.466;2022-11-15T11:48:39;17.50;99.90
18974;DHT22;9621;48.690;9.466;2022-11-15T11:51:12;17.10;99.90
18974;DHT22;9621;48.690;9.466;2022-11-15T11:53:47;16.80;99.90
18974;DHT22;9621;48.690;9.466;2022-11-15T11:56:22;16.40;99.90
18974;DHT22;9621;48.690;9.466;2022-11-15T11:58:52;16.10;99.90
18974;DHT22;9621;48.690;9.466;2022-11-15T12:01:23;15.80;99.90
18974;DHT22;9621;48.690;9.466;2022-11-15T12:03:55;15.60;99.90
18974;DHT22;9621;48.690;9.466;2022-11-15T12:06:30;15.50;99.90
18974;DHT22;9621;48.690;9.466;2022-11-15T12:09:03;15.30;99.90
18974;DHT22;9621;48.690;9.466;2022-11-15T12:11:38;15.30;99.90
18974;DHT22;9621;48.690;9.466;2022-11-15T12:14:16;15.20;99.90
18974;DHT22;9621;48.690;9.466;2022-11-15T12:16:48;15.20;99.90
18974;DHT22;9621;48.690;9.466;2022-11-15T12:19:14;15.10;99.90
18974;DHT22;9621;48.690;9.466;2022-11-15T12:21:45;15.10;99.90
18974;DHT22;9621;48.690;9.466;2022-11-15T12:24:18;15.20;99.90
18974;DHT22;9621;48.690;9.466;2022-11-15T12:26:50;15.20;99.90
18974;DHT22;9621;48.690;9.466;2022-11-15T12:29:23;15.30;99.90
18974;DHT22;9621;48.690;9.466;2022-11-15T12:31:53;15.40;99.90
18974;DHT22;9621;48.690;9.466;2022-11-15T12:34:49;15.50;99.90
18974;DHT22;9621;48.690;9.466;2022-11-15T12:40:29;15.40;99.90
18974;DHT22;9621;48.690;9.466;2022-11-15T12:43:10;15.50;99.90
18974;DHT22;9621;48.690;9.466;2022-11-15T12:45:55;15.50;99.90
18974;DHT22;9621;48.690;9.466;2022-11-15T12:48:52;15.40;99.90
18974;DHT22;9621;48.690;9.466;2022-11-15T12:51:21;15.30;99.90
18974;DHT22;9621;48.690;9.466;2022-11-15T12:53:48;15.20;99.90
18974;DHT22;9621;48.690;9.466;2022-11-15T12:56:32;15.10;99.90
18974;DHT22;9621;48.690;9.466;2022-11-15T12:59:00;15.00;99.90
18974;DHT22;9621;48.690;9.466;2022-11-15T13:01:57;14.90;99.90
18974;DHT22;9621;48.690;9.466;2022-11-15T13:04:27;14.90;99.90
18974;DHT22;9621;48.690;9.466;2022-11-15T13:06:56;14.80;99.90
18974;DHT22;9621;48.690;9.466;2022-11-15T13:09:53;14.80;99.90
18974;DHT22;9621;48.690;9.466;2022-11-15T13:12:50;14.70;99.90
18974;DHT22;9621;48.690;9.466;2022-11-15T13:15:38;14.70;99.90
18974;DHT22;9621;48.690;9.466;2022-11-15T13:18:36;14.70;99.90
18974;DHT22;9621;48.690;9.466;2022-11-15T13:21:18;14.60;99.90
18974;DHT22;9621;48.690;9.466;2022-11-15T13:24:03;14.50;99.90
18974;DHT22;9621;48.690;9.466;2022-11-15T13:26:33;14.50;99.90
18974;DHT22;9621;48.690;9.466;2022-11-15T13:29:02;14.50;99.90
18974;DHT22;9621;48.690;9.466;2022-11-15T13:31:35;14.50;99.90
18974;DHT22;9621;48.690;9.466;2022-11-15T13:34:16;14.40;99.90
18974;DHT22;9621;48.690;9.466;2022-11-15T13:36:45;14.50;99.90
18974;DHT22;9621;48.690;9.466;2022-11-15T13:39:23;14.40;99.90
18974;DHT22;9621;48.690;9.466;2022-11-15T13:41:52;14.40;99.90
18974;DHT22;9621;48.690;9.466;2022-11-15T13:44:22;14.40;99.90
18974;DHT22;9621;48.690;9.466;2022-11-15T13:47:01;14.50;99.90
18974;DHT22;9621;48.690;9.466;2022-11-15T13:49:29;15.00;99.90
18974;DHT22;9621;48.690;9.466;2022-11-15T13:51:57;14.50;99.90
18974;DHT22;9621;48.690;9.466;2022-11-15T13:54:27;14.50;99.90
18974;DHT22;9621;48.690;9.466;2022-11-15T13:56:59;14.40;99.90
18974;DHT22;9621;48.690;9.466;2022-11-15T13:59:30;14.50;99.90
18974;DHT22;9621;48.690;9.466;2022-11-15T14:02:02;14.40;99.90
18974;DHT22;9621;48.690;9.466;2022-11-15T14:04:30;14.40;99.90
18974;DHT22;9621;48.690;9.466;2022-11-15T14:07:00;14.40;99.90
18974;DHT22;9621;48.690;9.466;2022-11-15T14:09:33;14.40;99.90
18974;DHT22;9621;48.690;9.466;2022-11-15T14:12:02;14.40;99.90
18974;DHT22;9621;48.690;9.466;2022-11-15T14:14:33;14.30;99.90
18974;DHT22;9621;48.690;9.466;2022-11-15T14:17:20;14.30;99.90
18974;DHT22;9621;48.690;9.466;2022-11-15T14:19:49;14.30;99.90
18974;DHT22;9621;48.690;9.466;2022-11-15T14:22:20;14.30;99.90
18974;DHT22;9621;48.690;9.466;2022-11-15T14:25:07;14.20;99.90
18974;DHT22;9621;48.690;9.466;2022-11-15T14:27:34;14.20;99.90
18974;DHT22;9621;48.690;9.466;2022-11-15T14:30:03;14.20;99.90
18974;DHT22;9621;48.690;9.466;2022-11-15T14:32:39;14.10;99.90
18974;DHT22;9621;48.690;9.466;2022-11-15T14:35:12;14.10;99.90
18974;DHT22;9621;48.690;9.466;2022-11-15T14:37:40;13.90;99.90
18974;DHT22;9621;48.690;9.466;2022-11-15T14:40:12;13.90;99.90
18974;DHT22;9621;48.690;9.466;2022-11-15T14:42:44;13.80;99.90
18974;DHT22;9621;48.690;9.466;2022-11-15T14:45:15;13.70;99.90
18974;DHT22;9621;48.690;9.466;2022-11-15T14:47:42;13.60;99.90
18974;DHT22;9621;48.690;9.466;2022-11-15T14:50:14;13.50;99.90
18974;DHT22;9621;48.690;9.466;2022-11-15T14:52:41;13.40;99.90
18974;DHT22;9621;48.690;9.466;2022-11-15T14:55:16;13.30;99.90
18974;DHT22;9621;48.690;9.466;2022-11-15T14:57:44;13.40;99.90
18974;DHT22;9621;48.690;9.466;2022-11-15T15:00:14;13.00;99.90
18974;DHT22;9621;48.690;9.466;2022-11-15T15:02:43;13.10;99.90
18974;DHT22;9621;48.690;9.466;2022-11-15T15:05:15;13.00;99.90
18974;DHT22;9621;48.690;9.466;2022-11-15T15:07:43;12.90;99.90
18974;DHT22;9621;48.690;9.466;2022-11-15T15:10:11;12.90;99.90
18974;DHT22;9621;48.690;9.466;2022-11-15T15:12:38;12.80;99.90
18974;DHT22;9621;48.690;9.466;2022-11-15T15:15:09;12.70;99.90
18974;DHT22;9621;48.690;9.466;2022-11-15T15:17:39;12.60;99.90
18974;DHT22;9621;48.690;9.466;2022-11-15T15:20:07;12.50;99.90
18974;DHT22;9621;48.690;9.466;2022-11-15T15:22:34;12.40;99.90
18974;DHT22;9621;48.690;9.466;2022-11-15T15:25:02;12.30;99.90
18974;DHT22;9621;48.690;9.466;2022-11-15T15:27:29;12.30;99.90
18974;DHT22;9621;48.690;9.466;2022-11-15T15:29:56;12.10;99.90
18974;DHT22;9621;48.690;9.466;2022-11-15T15:32:23;12.10;99.90
18974;DHT22;9621;48.690;9.466;2022-11-15T15:34:51;11.90;99.90
18974;DHT22;9621;48.690;9.466;2022-11-15T15:37:23;11.90;99.90
18974;DHT22;9621;48.690;9.466;2022-11-15T15:39:51;11.80;99.90
18974;DHT22;9621;48.690;9.466;2022-11-15T15:42:18;12.00;99.90
18974;DHT22;9621;48.690;9.466;2022-11-15T15:44:46;11.60;99.90
18974;DHT22;9621;48.690;9.466;2022-11-15T15:47:15;11.50;99.90
18974;DHT22;9621;48.690;9.466;2022-11-15T15:49:42;11.50;99.90
18974;DHT22;9621;48.690;9.466;2022-11-15T15:52:11;11.40;99.90
18974;DHT22;9621;48.690;9.466;2022-11-15T15:54:38;11.30;99.90
18974;DHT22;9621;48.690;9.466;2022-11-15T15:57:05;11.30;99.90
18974;DHT22;9621;48.690;9.466;2022-11-15T15:59:32;11.20;99.90
18974;DHT22;9621;48.690;9.466;2022-11-15T16:01:59;11.10;99.90
18974;DHT22;9621;48.690;9.466;2022-11-15T16:04:26;11.10;99.90
18974;DHT22;9621;48.690;9.466;2022-11-15T16:06:58;11.10;99.90
18974;DHT22;9621;48.690;9.466;2022-11-15T16:09:27;11.00;99.90
18974;DHT22;9621;48.690;9.466;2022-11-15T16:12:14;10.90;99.90
18974;DHT22;9621;48.690;9.466;2022-11-15T16:14:42;10.80;99.90
18974;DHT22;9621;48.690;9.466;2022-11-15T16:17:09;10.80;99.90
18974;DHT22;9621;48.690;9.466;2022-11-15T16:19:43;10.70;99.90
18974;DHT22;9621;48.690;9.466;2022-11-15T16:22:10;10.80;99.90
18974;DHT22;9621;48.690;9.466;2022-11-15T16:24:38;10.60;99.90
18974;DHT22;9621;48.690;9.466;2022-11-15T16:27:09;10.70;99.90
18974;DHT22;9621;48.690;9.466;2022-11-15T16:29:37;10.50;99.90
18974;DHT22;9621;48.690;9.466;2022-11-15T16:32:04;10.40;99.90
18974;DHT22;9621;48.690;9.466;2022-11-15T16:34:31;10.40;99.90
18974;DHT22;9621;48.690;9.466;2022-11-15T16:36:58;10.30;99.90
18974;DHT22;9621;48.690;9.466;2022-11-15T16:39:25;10.30;99.90
18974;DHT22;9621;48.690;9.466;2022-11-15T16:41:56;10.20;99.90
18974;DHT22;9621;48.690;9.466;2022-11-15T16:44:25;10.20;99.90
18974;DHT22;9621;48.690;9.466;2022-11-15T16:46:54;10.10;99.90
18974;DHT22;9621;48.690;9.466;2022-11-15T16:49:21;10.10;99.90
18974;DHT22;9621;48.690;9.466;2022-11-15T16:51:49;10.10;99.90
18974;DHT22;9621;48.690;9.466;2022-11-15T16:54:17;10.00;99.90
18974;DHT22;9621;48.690;9.466;2022-11-15T16:56:44;9.90;99.90
18974;DHT22;9621;48.690;9.466;2022-11-15T16:59:16;10.00;99.90
18974;DHT22;9621;48.690;9.466;2022-11-15T17:01:44;10.00;99.90
18974;DHT22;9621;48.690;9.466;2022-11-15T17:04:17;9.90;99.90
18974;DHT22;9621;48.690;9.466;2022-11-15T17:06:45;9.90;99.90
18974;DHT22;9621;48.690;9.466;2022-11-15T17:09:13;9.80;99.90
18974;DHT22;9621;48.690;9.466;2022-11-15T17:11:41;9.90;99.90
18974;DHT22;9621;48.690;9.466;2022-11-15T17:14:09;9.80;99.90
18974;DHT22;9621;48.690;9.466;2022-11-15T17:16:38;9.80;99.90
18974;DHT22;9621;48.690;9.466;2022-11-15T17:19:11;9.70;99.90
18974;DHT22;9621;48.690;9.466;2022-11-15T17:21:40;9.70;99.90
18974;DHT22;9621;48.690;9.466;2022-11-15T17:24:12;9.70;99.90
18974;DHT22;9621;48.690;9.466;2022-11-15T17:26:42;9.60;99.90
18974;DHT22;9621;48.690;9.466;2022-11-15T17:29:10;9.60;99.90
18974;DHT22;9621;48.690;9.466;2022-11-15T17:31:38;9.60;99.90
18974;DHT22;9621;48.690;9.466;2022-11-15T17:34:05;9.60;99.90
18974;DHT22;9621;48.690;9.466;2022-11-15T17:36:33;9.60;99.90
18974;DHT22;9621;48.690;9.466;2022-11-15T17:39:02;9.60;99.90
18974;DHT22;9621;48.690;9.466;2022-11-15T17:41:29;9.60;99.90
18974;DHT22;9621;48.690;9.466;2022-11-15T17:43:57;9.50;99.90
18974;DHT22;9621;48.690;9.466;2022-11-15T17:46:26;9.50;99.90
18974;DHT22;9621;48.690;9.466;2022-11-15T17:48:55;9.60;99.90
18974;DHT22;9621;48.690;9.466;2022-11-15T17:51:23;9.50;99.90
18974;DHT22;9621;48.690;9.466;2022-11-15T17:53:50;9.40;99.90
18974;DHT22;9621;48.690;9.466;2022-11-15T17:56:19;9.50;99.90
18974;DHT22;9621;48.690;9.466;2022-11-15T17:58:47;9.50;99.90
18974;DHT22;9621;48.690;9.466;2022-11-15T18:01:17;9.50;99.90
18974;DHT22;9621;48.690;9.466;2022-11-15T18:03:44;9.50;99.90
18974;DHT22;9621;48.690;9.466;2022-11-15T18:06:13;9.60;99.90
18974;DHT22;9621;48.690;9.466;2022-11-15T18:08:42;9.40;99.90
18974;DHT22;9621;48.690;9.466;2022-11-15T18:11:11;9.40;99.90
18974;DHT22;9621;48.690;9.466;2022-11-15T18:13:40;9.50;99.90
18974;DHT22;9621;48.690;9.466;2022-11-15T18:16:11;9.50;99.90
18974;DHT22;9621;48.690;9.466;2022-11-15T18:18:39;9.50;99.90
18974;DHT22;9621;48.690;9.466;2022-11-15T18:21:10;9.50;99.90
18974;DHT22;9621;48.690;9.466;2022-11-15T18:23:40;9.50;99.90
18974;DHT22;9621;48.690;9.466;2022-11-15T18:26:09;9.50;99.90
18974;DHT22;9621;48.690;9.466;2022-11-15T18:28:40;9.50;99.90
18974;DHT22;9621;48.690;9.466;2022-11-15T18:31:12;9.50;99.90
18974;DHT22;9621;48.690;9.466;2022-11-15T18:33:40;9.50;99.90
18974;DHT22;9621;48.690;9.466;2022-11-15T18:36:10;9.50;99.90
18974;DHT22;9621;48.690;9.466;2022-11-15T18:38:40;9.60;99.90
18974;DHT22;9621;48.690;9.466;2022-11-15T18:41:08;9.50;99.90
18974;DHT22;9621;48.690;9.466;2022-11-15T18:43:37;9.50;99.90
18974;DHT22;9621;48.690;9.466;2022-11-15T18:46:06;9.50;99.90
18974;DHT22;9621;48.690;9.466;2022-11-15T18:48:34;9.50;99.90
18974;DHT22;9621;48.690;9.466;2022-11-15T18:51:02;9.50;99.90
18974;DHT22;9621;48.690;9.466;2022-11-15T18:53:30;9.60;99.90
18974;DHT22;9621;48.690;9.466;2022-11-15T18:56:04;9.60;99.90
18974;DHT22;9621;48.690;9.466;2022-11-15T18:58:33;9.50;99.90
18974;DHT22;9621;48.690;9.466;2022-11-15T19:01:01;9.60;99.90
18974;DHT22;9621;48.690;9.466;2022-11-15T19:03:32;9.50;99.90
18974;DHT22;9621;48.690;9.466;2022-11-15T19:06:03;9.50;99.90
18974;DHT22;9621;48.690;9.466;2022-11-15T19:08:32;9.50;99.90
18974;DHT22;9621;48.690;9.466;2022-11-15T19:11:03;9.50;99.90
18974;DHT22;9621;48.690;9.466;2022-11-15T19:13:31;9.50;99.90
18974;DHT22;9621;48.690;9.466;2022-11-15T19:15:59;9.50;99.90
18974;DHT22;9621;48.690;9.466;2022-11-15T19:18:27;9.60;99.90
18974;DHT22;9621;48.690;9.466;2022-11-15T19:21:01;9.50;99.90
18974;DHT22;9621;48.690;9.466;2022-11-15T19:23:32;9.50;99.90
18974;DHT22;9621;48.690;9.466;2022-11-15T19:26:00;9.50;99.90
18974;DHT22;9621;48.690;9.466;2022-11-15T19:28:30;9.40;99.90
18974;DHT22;9621;48.690;9.466;2022-11-15T19:31:02;9.50;99.90
18974;DHT22;9621;48.690;9.466;2022-11-15T19:33:29;9.50;99.90
18974;DHT22;9621;48.690;9.466;2022-11-15T19:35:59;9.50;99.90
18974;DHT22;9621;48.690;9.466;2022-11-15T19:38:26;9.50;99.90
18974;DHT22;9621;48.690;9.466;2022-11-15T19:40:57;9.50;99.90
18974;DHT22;9621;48.690;9.466;2022-11-15T19:43:24;9.50;99.90
18974;DHT22;9621;48.690;9.466;2022-11-15T19:45:53;9.80;99.90
18974;DHT22;9621;48.690;9.466;2022-11-15T19:48:20;9.40;99.90
18974;DHT22;9621;48.690;9.466;2022-11-15T19:50:47;9.40;99.90
18974;DHT22;9621;48.690;9.466;2022-11-15T19:53:15;9.40;99.90
18974;DHT22;9621;48.690;9.466;2022-11-15T19:55:52;9.30;99.90
18974;DHT22;9621;48.690;9.466;2022-11-15T19:58:20;9.30;99.90
18974;DHT22;9621;48.690;9.466;2022-11-15T20:00:47;9.20;99.90
18974;DHT22;9621;48.690;9.466;2022-11-15T20:03:16;9.20;99.90
18974;DHT22;9621;48.690;9.466;2022-11-15T20:05:43;9.20;99.90
18974;DHT22;9621;48.690;9.466;2022-11-15T20:08:10;9.10;99.90
18974;DHT22;9621;48.690;9.466;2022-11-15T20:10:37;9.10;99.90
18974;DHT22;9621;48.690;9.466;2022-11-15T20:13:04;9.10;99.90
18974;DHT22;9621;48.690;9.466;2022-11-15T20:15:32;9.10;99.90
18974;DHT22;9621;48.690;9.466;2022-11-15T20:17:59;9.10;99.90
18974;DHT22;9621;48.690;9.466;2022-11-15T20:20:27;9.10;99.90
18974;DHT22;9621;48.690;9.466;2022-11-15T20:22:55;9.20;99.90
18974;DHT22;9621;48.690;9.466;2022-11-15T20:25:22;9.10;99.90
18974;DHT22;9621;48.690;9.466;2022-11-15T20:27:49;9.10;99.90
18974;DHT22;9621;48.690;9.466;2022-11-15T20:30:16;9.10;99.90
18974;DHT22;9621;48.690;9.466;2022-11-15T20:33:00;9.10;99.90
18974;DHT22;9621;48.690;9.466;2022-11-15T20:35:29;9.20;99.90
18974;DHT22;9621;48.690;9.466;2022-11-15T20:37:57;9.10;99.90
18974;DHT22;9621;48.690;9.466;2022-11-15T20:40:28;9.10;99.90
18974;DHT22;9621;48.690;9.466;2022-11-15T20:42:55;9.10;99.90
18974;DHT22;9621;48.690;9.466;2022-11-15T20:45:22;9.10;99.90
18974;DHT22;9621;48.690;9.466;2022-11-15T20:47:49;9.00;99.90
18974;DHT22;9621;48.690;9.466;2022-11-15T20:50:17;9.00;99.90
18974;DHT22;9621;48.690;9.466;2022-11-15T20:52:45;9.00;99.90
18974;DHT22;9621;48.690;9.466;2022-11-15T20:55:12;9.00;99.90
18974;DHT22;9621;48.690;9.466;2022-11-15T20:57:40;9.00;99.90
18974;DHT22;9621;48.690;9.466;2022-11-15T21:00:08;9.00;99.90
18974;DHT22;9621;48.690;9.466;2022-11-15T21:02:35;8.50;99.90
18974;DHT22;9621;48.690;9.466;2022-11-15T21:05:04;9.00;99.90
18974;DHT22;9621;48.690;9.466;2022-11-15T21:07:31;9.00;99.90
18974;DHT22;9621;48.690;9.466;2022-11-15T21:10:00;9.00;99.90
18974;DHT22;9621;48.690;9.466;2022-11-15T21:12:45;9.00;99.90
18974;DHT22;9621;48.690;9.466;2022-11-15T21:15:12;9.00;99.90
18974;DHT22;9621;48.690;9.466;2022-11-15T21:17:39;9.00;99.90
18974;DHT22;9621;48.690;9.466;2022-11-15T21:20:07;9.00;99.90
18974;DHT22;9621;48.690;9.466;2022-11-15T21:22:34;9.00;99.90
18974;DHT22;9621;48.690;9.466;2022-11-15T21:25:03;9.00;99.90
18974;DHT22;9621;48.690;9.466;2022-11-15T21:27:30;10.10;99.90
18974;DHT22;9621;48.690;9.466;2022-11-15T21:29:57;9.00;99.90
18974;DHT22;9621;48.690;9.466;2022-11-15T21:32:24;9.00;99.90
18974;DHT22;9621;48.690;9.466;2022-11-15T21:34:53;9.00;99.90
18974;DHT22;9621;48.690;9.466;2022-11-15T21:37:20;9.00;99.90
18974;DHT22;9621;48.690;9.466;2022-11-15T21:39:47;9.00;99.90
18974;DHT22;9621;48.690;9.466;2022-11-15T21:42:16;8.90;99.90
18974;DHT22;9621;48.690;9.466;2022-11-15T21:44:42;9.00;99.90
18974;DHT22;9621;48.690;9.466;2022-11-15T21:47:09;8.90;99.90
18974;DHT22;9621;48.690;9.466;2022-11-15T21:49:36;8.90;99.90
18974;DHT22;9621;48.690;9.466;2022-11-15T21:52:03;8.80;99.90
18974;DHT22;9621;48.690;9.466;2022-11-15T21:54:30;9.00;99.90
18974;DHT22;9621;48.690;9.466;2022-11-15T21:56:57;9.00;99.90
18974;DHT22;9621;48.690;9.466;2022-11-15T21:59:26;9.00;99.90
18974;DHT22;9621;48.690;9.466;2022-11-15T22:01:53;9.00;99.90
18974;DHT22;9621;48.690;9.466;2022-11-15T22:04:37;9.10;99.90
18974;DHT22;9621;48.690;9.466;2022-11-15T22:07:04;9.00;99.90
18974;DHT22;9621;48.690;9.466;2022-11-15T22:09:31;9.00;99.90
18974;DHT22;9621;48.690;9.466;2022-11-15T22:11:58;9.00;99.90
18974;DHT22;9621;48.690;9.466;2022-11-15T22:14:26;8.90;99.90
18974;DHT22;9621;48.690;9.466;2022-11-15T22:16:53;9.00;99.90
18974;DHT22;9621;48.690;9.466;2022-11-15T22:19:20;9.00;99.90
18974;DHT22;9621;48.690;9.466;2022-11-15T22:21:47;8.90;99.90
18974;DHT22;9621;48.690;9.466;2022-11-15T22:24:14;8.80;99.90
18974;DHT22;9621;48.690;9.466;2022-11-15T22:26:43;8.80;99.90
18974;DHT22;9621;48.690;9.466;2022-11-15T22:29:10;8.70;99.90
18974;DHT22;9621;48.690;9.466;2022-11-15T22:31:39;8.80;99.90
18974;DHT22;9621;48.690;9.466;2022-11-15T22:34:06;8.80;99.90
18974;DHT22;9621;48.690;9.466;2022-11-15T22:36:34;8.80;99.90
18974;DHT22;9621;48.690;9.466;2022-11-15T22:39:01;8.80;99.90
18974;DHT22;9621;48.690;9.466;2022-11-15T22:41:28;8.80;99.90
18974;DHT22;9621;48.690;9.466;2022-11-15T22:43:55;8.80;99.90
18974;DHT22;9621;48.690;9.466;2022-11-15T22:46:22;8.80;99.90
18974;DHT22;9621;48.690;9.466;2022-11-15T22:48:51;8.80;99.90
18974;DHT22;9621;48.690;9.466;2022-11-15T22:51:18;8.80;99.90
18974;DHT22;9621;48.690;9.466;2022-11-15T22:53:46;8.80;99.90
18974;DHT22;9621;48.690;9.466;2022-11-15T22:56:13;8.80;99.90
18974;DHT22;9621;48.690;9.466;2022-11-15T22:58:40;8.80;99.90
18974;DHT22;9621;48.690;9.466;2022-11-15T23:01:18;8.80;99.90
18974;DHT22;9621;48.690;9.466;2022-11-15T23:03:47;8.80;99.90
18974;DHT22;9621;48.690;9.466;2022-11-15T23:06:15;8.80;99.90
18974;DHT22;9621;48.690;9.466;2022-11-15T23:08:43;8.80;99.90
18974;DHT22;9621;48.690;9.466;2022-11-15T23:11:10;8.80;99.90
18974;DHT22;9621;48.690;9.466;2022-11-15T23:13:55;8.80;99.90
18974;DHT22;9621;48.690;9.466;2022-11-15T23:16:23;8.80;99.90
18974;DHT22;9621;48.690;9.466;2022-11-15T23:19:02;8.80;99.90